sensor_id;sensor_type;location;lat;lon;timestamp;temperature;humidity
10964;DHT22;5534;48.784;9.190;2023-02-26T00:00:26;5.00;99.90
10964;DHT22;5534;48.784;9.190;2023-02-26T00:02:52;4.90;99.90
10964;DHT22;5534;48.784;9.190;2023-02-26T00:05:19;5.10;99.90
10964;DHT22;5534;48.784;9.190;2023-02-26T00:07:45;5.00;99.90
10964;DHT22;5534;48.784;9.190;2023-02-26T00:10:12;4.80;99.90
10964;DHT22;5534;48.784;9.190;2023-02-26T00:12:39;4.80;99.90
10964;DHT22;5534;48.784;9.190;2023-02-26T00:15:06;4.70;99.90
10964;DHT22;5534;48.784;9.190;2023-02-26T00:18:03;4.70;99.90
10964;DHT22;5534;48.784;9.190;2023-02-26T00:20:30;4.70;99.90
10964;DHT22;5534;48.784;9.190;2023-02-26T00:22:56;4.70;99.90
10964;DHT22;5534;48.784;9.190;2023-02-26T00:25:22;4.50;99.90
10964;DHT22;5534;48.784;9.190;2023-02-26T00:27:48;4.60;99.90
10964;DHT22;5534;48.784;9.190;2023-02-26T00:30:15;4.60;99.90
10964;DHT22;5534;48.784;9.190;2023-02-26T00:32:41;4.60;99.90
10964;DHT22;5534;48.784;9.190;2023-02-26T00:35:12;4.60;99.90
10964;DHT22;5534;48.784;9.190;2023-02-26T00:42:48;4.70;99.90
10964;DHT22;5534;48.784;9.190;2023-02-26T00:45:15;4.60;99.90
10964;DHT22;5534;48.784;9.190;2023-02-26T00:47:51;4.50;99.90
10964;DHT22;5534;48.784;9.190;2023-02-26T00:50:19;4.50;99.90
10964;DHT22;5534;48.784;9.190;2023-02-26T00:52:48;4.50;99.90
10964;DHT22;5534;48.784;9.190;2023-02-26T00:55:16;4.50;99.90
10964;DHT22;5534;48.784;9.190;2023-02-26T00:57:45;4.60;99.90
10964;DHT22;5534;48.784;9.190;2023-02-26T01:00:11;4.60;99.90
10964;DHT22;5534;48.784;9.190;2023-02-26T01:02:37;4.50;99.90
10964;DHT22;5534;48.784;9.190;2023-02-26T01:05:05;4.60;99.90
10964;DHT22;5534;48.784;9.190;2023-02-26T01:07:37;4.50;99.90
10964;DHT22;5534;48.784;9.190;2023-02-26T01:10:05;4.40;99.90
10964;DHT22;5534;48.784;9.190;2023-02-26T01:12:31;4.40;99.90
10964;DHT22;5534;48.784;9.190;2023-02-26T01:14:57;4.40;99.90
10964;DHT22;5534;48.784;9.190;2023-02-26T01:17:30;4.40;99.90
10964;DHT22;5534;48.784;9.190;2023-02-26T01:20:04;4.40;99.90
10964;DHT22;5534;48.784;9.190;2023-02-26T01:22:43;4.50;99.90
10964;DHT22;5534;48.784;9.190;2023-02-26T01:25:21;4.50;99.90
10964;DHT22;5534;48.784;9.190;2023-02-26T01:27:48;4.40;99.90
10964;DHT22;5534;48.784;9.190;2023-02-26T01:30:14;4.40;99.90
10964;DHT22;5534;48.784;9.190;2023-02-26T01:35:49;4.30;99.90
10964;DHT22;5534;48.784;9.190;2023-02-26T01:46:27;4.20;99.90
10964;DHT22;5534;48.784;9.190;2023-02-26T01:48:59;4.30;99.90
10964;DHT22;5534;48.784;9.190;2023-02-26T01:54:14;4.30;99.90
10964;DHT22;5534;48.784;9.190;2023-02-26T01:56:40;4.20;99.90
10964;DHT22;5534;48.784;9.190;2023-02-26T01:59:09;4.20;99.90
10964;DHT22;5534;48.784;9.190;2023-02-26T02:01:36;4.20;99.90
10964;DHT22;5534;48.784;9.190;2023-02-26T02:04:05;4.30;99.90
10964;DHT22;5534;48.784;9.190;2023-02-26T02:06:32;4.30;99.90
10964;DHT22;5534;48.784;9.190;2023-02-26T02:08:58;4.30;99.90
10964;DHT22;5534;48.784;9.190;2023-02-26T02:11:23;4.30;99.90
10964;DHT22;5534;48.784;9.190;2023-02-26T02:16:54;4.20;99.90
10964;DHT22;5534;48.784;9.190;2023-02-26T02:19:51;4.10;99.90
10964;DHT22;5534;48.784;9.190;2023-02-26T02:27:57;4.10;99.90
10964;DHT22;5534;48.784;9.190;2023-02-26T02:33:18;4.10;99.90
10964;DHT22;5534;48.784;9.190;2023-02-26T02:35:53;4.10;99.90
10964;DHT22;5534;48.784;9.190;2023-02-26T02:38:51;4.00;99.90
10964;DHT22;5534;48.784;9.190;2023-02-26T02:41:43;4.00;99.90
10964;DHT22;5534;48.784;9.190;2023-02-26T02:44:13;4.10;99.90
10964;DHT22;5534;48.784;9.190;2023-02-26T02:46:42;4.10;99.90
10964;DHT22;5534;48.784;9.190;2023-02-26T02:49:31;4.10;99.90
10964;DHT22;5534;48.784;9.190;2023-02-26T02:52:12;4.10;99.90
10964;DHT22;5534;48.784;9.190;2023-02-26T02:54:48;4.10;99.90
10964;DHT22;5534;48.784;9.190;2023-02-26T02:57:21;4.00;99.90
10964;DHT22;5534;48.784;9.190;2023-02-26T02:59:51;4.10;99.90
10964;DHT22;5534;48.784;9.190;2023-02-26T03:04:48;3.90;99.90
10964;DHT22;5534;48.784;9.190;2023-02-26T03:07:15;3.80;99.90
10964;DHT22;5534;48.784;9.190;2023-02-26T03:09:41;4.10;99.90
10964;DHT22;5534;48.784;9.190;2023-02-26T03:12:07;4.00;99.90
10964;DHT22;5534;48.784;9.190;2023-02-26T03:14:33;3.70;99.90
10964;DHT22;5534;48.784;9.190;2023-02-26T03:17:14;3.80;99.90
10964;DHT22;5534;48.784;9.190;2023-02-26T03:27:48;3.90;99.90
10964;DHT22;5534;48.784;9.190;2023-02-26T03:30:23;3.90;99.90
10964;DHT22;5534;48.784;9.190;2023-02-26T03:33:06;3.90;99.90
10964;DHT22;5534;48.784;9.190;2023-02-26T03:35:40;3.90;99.90
10964;DHT22;5534;48.784;9.190;2023-02-26T03:38:16;3.80;99.90
10964;DHT22;5534;48.784;9.190;2023-02-26T03:40:56;3.80;99.90
10964;DHT22;5534;48.784;9.190;2023-02-26T03:43:32;3.90;99.90
10964;DHT22;5534;48.784;9.190;2023-02-26T03:46:03;4.00;99.90
10964;DHT22;5534;48.784;9.190;2023-02-26T03:48:30;3.90;99.90
10964;DHT22;5534;48.784;9.190;2023-02-26T03:51:07;3.80;99.90
10964;DHT22;5534;48.784;9.190;2023-02-26T03:54:40;3.70;99.90
10964;DHT22;5534;48.784;9.190;2023-02-26T03:56:43;3.70;99.90
10964;DHT22;5534;48.784;9.190;2023-02-26T03:59:11;3.60;99.90
10964;DHT22;5534;48.784;9.190;2023-02-26T04:01:58;3.60;99.90
10964;DHT22;5534;48.784;9.190;2023-02-26T04:04:45;3.60;99.90
10964;DHT22;5534;48.784;9.190;2023-02-26T04:07:14;3.60;99.90
10964;DHT22;5534;48.784;9.190;2023-02-26T04:09:42;3.60;99.90
10964;DHT22;5534;48.784;9.190;2023-02-26T04:12:08;3.50;99.90
10964;DHT22;5534;48.784;9.190;2023-02-26T04:14:33;3.60;99.90
10964;DHT22;5534;48.784;9.190;2023-02-26T04:16:59;3.60;99.90
10964;DHT22;5534;48.784;9.190;2023-02-26T04:19:25;3.60;99.90
10964;DHT22;5534;48.784;9.190;2023-02-26T04:21:51;3.60;99.90
10964;DHT22;5534;48.784;9.190;2023-02-26T04:24:16;3.50;99.90
10964;DHT22;5534;48.784;9.190;2023-02-26T04:26:42;3.50;99.90
10964;DHT22;5534;48.784;9.190;2023-02-26T04:29:08;3.50;99.90
10964;DHT22;5534;48.784;9.190;2023-02-26T04:31:33;3.60;99.90
10964;DHT22;5534;48.784;9.190;2023-02-26T04:34:01;3.50;99.90
10964;DHT22;5534;48.784;9.190;2023-02-26T04:36:27;3.60;99.90
10964;DHT22;5534;48.784;9.190;2023-02-26T04:38:53;3.60;99.90
10964;DHT22;5534;48.784;9.190;2023-02-26T04:41:19;3.60;99.90
10964;DHT22;5534;48.784;9.190;2023-02-26T04:43:44;3.60;99.90
10964;DHT22;5534;48.784;9.190;2023-02-26T04:46:10;3.60;99.90
10964;DHT22;5534;48.784;9.190;2023-02-26T04:48:36;3.60;99.90
10964;DHT22;5534;48.784;9.190;2023-02-26T04:51:02;3.60;99.90
10964;DHT22;5534;48.784;9.190;2023-02-26T04:53:27;3.60;99.90
10964;DHT22;5534;48.784;9.190;2023-02-26T04:55:53;3.60;99.90
10964;DHT22;5534;48.784;9.190;2023-02-26T04:58:19;3.50;99.90
10964;DHT22;5534;48.784;9.190;2023-02-26T05:00:49;3.60;99.90
10964;DHT22;5534;48.784;9.190;2023-02-26T05:03:15;3.50;99.90
10964;DHT22;5534;48.784;9.190;2023-02-26T05:05:41;3.40;99.90
10964;DHT22;5534;48.784;9.190;2023-02-26T05:08:07;3.40;99.90
10964;DHT22;5534;48.784;9.190;2023-02-26T05:10:33;3.40;99.90
10964;DHT22;5534;48.784;9.190;2023-02-26T05:12:58;3.40;99.90
10964;DHT22;5534;48.784;9.190;2023-02-26T05:15:24;3.50;99.90
10964;DHT22;5534;48.784;9.190;2023-02-26T05:17:50;3.50;99.90
10964;DHT22;5534;48.784;9.190;2023-02-26T05:20:16;3.40;99.90
10964;DHT22;5534;48.784;9.190;2023-02-26T05:22:43;3.30;99.90
10964;DHT22;5534;48.784;9.190;2023-02-26T05:25:10;3.30;99.90
10964;DHT22;5534;48.784;9.190;2023-02-26T05:27:40;3.30;99.90
10964;DHT22;5534;48.784;9.190;2023-02-26T05:30:12;3.30;99.90
10964;DHT22;5534;48.784;9.190;2023-02-26T05:32:38;3.00;99.90
10964;DHT22;5534;48.784;9.190;2023-02-26T05:35:04;2.90;99.90
10964;DHT22;5534;48.784;9.190;2023-02-26T05:37:30;3.10;99.90
10964;DHT22;5534;48.784;9.190;2023-02-26T05:39:56;3.20;99.90
10964;DHT22;5534;48.784;9.190;2023-02-26T05:42:21;3.20;99.90
10964;DHT22;5534;48.784;9.190;2023-02-26T05:44:47;3.40;99.90
10964;DHT22;5534;48.784;9.190;2023-02-26T05:47:13;3.30;99.90
10964;DHT22;5534;48.784;9.190;2023-02-26T05:49:39;3.30;99.90
10964;DHT22;5534;48.784;9.190;2023-02-26T05:52:05;3.30;99.90
10964;DHT22;5534;48.784;9.190;2023-02-26T05:54:30;3.20;99.90
10964;DHT22;5534;48.784;9.190;2023-02-26T05:56:56;3.30;99.90
10964;DHT22;5534;48.784;9.190;2023-02-26T05:59:22;3.30;99.90
10964;DHT22;5534;48.784;9.190;2023-02-26T06:01:48;3.30;99.90
10964;DHT22;5534;48.784;9.190;2023-02-26T06:04:14;3.30;99.90
10964;DHT22;5534;48.784;9.190;2023-02-26T06:06:39;3.20;99.90
10964;DHT22;5534;48.784;9.190;2023-02-26T06:09:05;3.20;99.90
10964;DHT22;5534;48.784;9.190;2023-02-26T06:11:31;3.10;99.90
10964;DHT22;5534;48.784;9.190;2023-02-26T06:13:57;3.10;99.90
10964;DHT22;5534;48.784;9.190;2023-02-26T06:16:23;3.20;99.90
10964;DHT22;5534;48.784;9.190;2023-02-26T06:18:49;3.10;99.90
10964;DHT22;5534;48.784;9.190;2023-02-26T06:21:16;3.20;99.90
10964;DHT22;5534;48.784;9.190;2023-02-26T06:23:43;3.20;99.90
10964;DHT22;5534;48.784;9.190;2023-02-26T06:26:08;3.20;99.90
10964;DHT22;5534;48.784;9.190;2023-02-26T06:28:34;3.20;99.90
10964;DHT22;5534;48.784;9.190;2023-02-26T06:31:00;3.10;99.90
10964;DHT22;5534;48.784;9.190;2023-02-26T06:33:26;3.00;99.90
10964;DHT22;5534;48.784;9.190;2023-02-26T06:35:52;3.10;99.90
10964;DHT22;5534;48.784;9.190;2023-02-26T06:38:18;3.00;99.90
10964;DHT22;5534;48.784;9.190;2023-02-26T06:40:46;3.10;99.90
10964;DHT22;5534;48.784;9.190;2023-02-26T06:43:11;3.20;99.90
10964;DHT22;5534;48.784;9.190;2023-02-26T06:45:37;3.20;99.90
10964;DHT22;5534;48.784;9.190;2023-02-26T06:48:04;3.20;99.90
10964;DHT22;5534;48.784;9.190;2023-02-26T06:50:30;3.10;99.90
10964;DHT22;5534;48.784;9.190;2023-02-26T06:52:56;3.20;99.90
10964;DHT22;5534;48.784;9.190;2023-02-26T06:55:22;3.20;99.90
10964;DHT22;5534;48.784;9.190;2023-02-26T06:57:55;3.20;99.90
10964;DHT22;5534;48.784;9.190;2023-02-26T07:00:22;3.10;99.90
10964;DHT22;5534;48.784;9.190;2023-02-26T07:02:49;3.10;99.90
10964;DHT22;5534;48.784;9.190;2023-02-26T07:05:15;3.10;99.90
10964;DHT22;5534;48.784;9.190;2023-02-26T07:07:41;3.10;99.90
10964;DHT22;5534;48.784;9.190;2023-02-26T07:10:08;3.10;99.90
10964;DHT22;5534;48.784;9.190;2023-02-26T07:12:34;3.10;99.90
10964;DHT22;5534;48.784;9.190;2023-02-26T07:15:00;3.20;99.90
10964;DHT22;5534;48.784;9.190;2023-02-26T07:17:26;3.30;99.90
10964;DHT22;5534;48.784;9.190;2023-02-26T07:19:52;3.40;99.90
10964;DHT22;5534;48.784;9.190;2023-02-26T07:22:19;3.40;99.90
10964;DHT22;5534;48.784;9.190;2023-02-26T07:24:45;3.40;99.90
10964;DHT22;5534;48.784;9.190;2023-02-26T07:27:11;3.40;99.90
10964;DHT22;5534;48.784;9.190;2023-02-26T07:29:37;3.40;99.90
10964;DHT22;5534;48.784;9.190;2023-02-26T07:32:03;3.40;99.90
10964;DHT22;5534;48.784;9.190;2023-02-26T07:34:30;3.40;99.90
10964;DHT22;5534;48.784;9.190;2023-02-26T07:36:56;3.50;99.90
10964;DHT22;5534;48.784;9.190;2023-02-26T07:39:24;3.50;99.90
10964;DHT22;5534;48.784;9.190;2023-02-26T07:41:50;3.50;99.90
10964;DHT22;5534;48.784;9.190;2023-02-26T07:44:16;3.50;99.90
10964;DHT22;5534;48.784;9.190;2023-02-26T07:46:41;3.50;99.90
10964;DHT22;5534;48.784;9.190;2023-02-26T07:49:07;3.50;99.90
10964;DHT22;5534;48.784;9.190;2023-02-26T07:51:33;3.60;99.90
10964;DHT22;5534;48.784;9.190;2023-02-26T07:53:59;3.50;99.90
10964;DHT22;5534;48.784;9.190;2023-02-26T07:56:24;3.40;99.90
10964;DHT22;5534;48.784;9.190;2023-02-26T07:58:50;3.50;99.90
10964;DHT22;5534;48.784;9.190;2023-02-26T08:01:16;3.40;99.90
10964;DHT22;5534;48.784;9.190;2023-02-26T08:03:42;3.30;99.90
10964;DHT22;5534;48.784;9.190;2023-02-26T08:06:07;3.40;99.90
10964;DHT22;5534;48.784;9.190;2023-02-26T08:08:33;3.40;99.90
10964;DHT22;5534;48.784;9.190;2023-02-26T08:11:00;3.50;99.90
10964;DHT22;5534;48.784;9.190;2023-02-26T08:13:26;3.50;99.90
10964;DHT22;5534;48.784;9.190;2023-02-26T08:15:52;3.40;99.90
10964;DHT22;5534;48.784;9.190;2023-02-26T08:18:18;3.40;99.90
10964;DHT22;5534;48.784;9.190;2023-02-26T08:20:44;3.50;99.90
10964;DHT22;5534;48.784;9.190;2023-02-26T08:23:10;3.80;99.90
10964;DHT22;5534;48.784;9.190;2023-02-26T08:25:36;3.90;99.90
10964;DHT22;5534;48.784;9.190;2023-02-26T08:28:02;4.00;99.90
10964;DHT22;5534;48.784;9.190;2023-02-26T08:30:28;4.00;99.90
10964;DHT22;5534;48.784;9.190;2023-02-26T08:32:54;4.10;99.90
10964;DHT22;5534;48.784;9.190;2023-02-26T08:35:20;4.10;99.90
10964;DHT22;5534;48.784;9.190;2023-02-26T08:37:46;3.80;99.90
10964;DHT22;5534;48.784;9.190;2023-02-26T08:40:12;3.70;99.90
10964;DHT22;5534;48.784;9.190;2023-02-26T08:42:38;3.70;99.90
10964;DHT22;5534;48.784;9.190;2023-02-26T08:45:05;3.80;99.90
10964;DHT22;5534;48.784;9.190;2023-02-26T08:47:31;3.90;99.90
10964;DHT22;5534;48.784;9.190;2023-02-26T08:49:57;3.80;99.90
10964;DHT22;5534;48.784;9.190;2023-02-26T08:52:23;3.90;99.90
10964;DHT22;5534;48.784;9.190;2023-02-26T08:54:49;3.80;99.90
10964;DHT22;5534;48.784;9.190;2023-02-26T08:57:15;3.90;99.90
10964;DHT22;5534;48.784;9.190;2023-02-26T08:59:41;4.00;99.90
10964;DHT22;5534;48.784;9.190;2023-02-26T09:02:10;3.90;99.90
10964;DHT22;5534;48.784;9.190;2023-02-26T09:04:36;3.90;99.90
10964;DHT22;5534;48.784;9.190;2023-02-26T09:07:02;3.90;99.90
10964;DHT22;5534;48.784;9.190;2023-02-26T09:09:27;3.70;99.90
10964;DHT22;5534;48.784;9.190;2023-02-26T09:11:53;3.70;99.90
10964;DHT22;5534;48.784;9.190;2023-02-26T09:14:19;3.60;99.90
10964;DHT22;5534;48.784;9.190;2023-02-26T09:16:44;3.70;99.90
10964;DHT22;5534;48.784;9.190;2023-02-26T09:19:10;3.80;99.90
10964;DHT22;5534;48.784;9.190;2023-02-26T09:21:36;4.00;99.90
10964;DHT22;5534;48.784;9.190;2023-02-26T09:24:02;4.10;99.90
10964;DHT22;5534;48.784;9.190;2023-02-26T09:26:31;4.20;99.90
10964;DHT22;5534;48.784;9.190;2023-02-26T09:28:56;4.20;99.90
10964;DHT22;5534;48.784;9.190;2023-02-26T09:31:22;4.00;99.90
10964;DHT22;5534;48.784;9.190;2023-02-26T09:33:48;3.90;99.90
10964;DHT22;5534;48.784;9.190;2023-02-26T09:36:14;3.70;99.90
10964;DHT22;5534;48.784;9.190;2023-02-26T09:38:39;3.90;99.90
10964;DHT22;5534;48.784;9.190;2023-02-26T09:41:16;3.90;99.90
10964;DHT22;5534;48.784;9.190;2023-02-26T09:52:31;4.00;99.90
10964;DHT22;5534;48.784;9.190;2023-02-26T09:55:02;3.90;99.90
10964;DHT22;5534;48.784;9.190;2023-02-26T09:57:32;3.90;99.90
10964;DHT22;5534;48.784;9.190;2023-02-26T09:59:59;3.80;99.90
10964;DHT22;5534;48.784;9.190;2023-02-26T10:05:18;3.80;99.90
10964;DHT22;5534;48.784;9.190;2023-02-26T10:07:58;3.90;99.90
10964;DHT22;5534;48.784;9.190;2023-02-26T10:10:41;3.90;99.90
10964;DHT22;5534;48.784;9.190;2023-02-26T10:13:24;4.00;99.90
10964;DHT22;5534;48.784;9.190;2023-02-26T10:15:52;4.10;99.90
10964;DHT22;5534;48.784;9.190;2023-02-26T10:18:25;4.10;99.90
10964;DHT22;5534;48.784;9.190;2023-02-26T10:21:10;4.10;99.90
10964;DHT22;5534;48.784;9.190;2023-02-26T10:23:41;4.00;99.90
10964;DHT22;5534;48.784;9.190;2023-02-26T10:26:17;3.90;99.90
10964;DHT22;5534;48.784;9.190;2023-02-26T10:45:39;4.20;99.90
10964;DHT22;5534;48.784;9.190;2023-02-26T10:51:15;4.30;99.90
10964;DHT22;5534;48.784;9.190;2023-02-26T10:54:03;4.20;99.90
10964;DHT22;5534;48.784;9.190;2023-02-26T10:56:31;4.10;99.90
10964;DHT22;5534;48.784;9.190;2023-02-26T10:58:57;4.10;99.90
10964;DHT22;5534;48.784;9.190;2023-02-26T11:01:27;4.20;99.90
10964;DHT22;5534;48.784;9.190;2023-02-26T11:04:01;4.40;99.90
10964;DHT22;5534;48.784;9.190;2023-02-26T11:06:36;4.30;99.90
10964;DHT22;5534;48.784;9.190;2023-02-26T11:09:12;4.00;99.90
10964;DHT22;5534;48.784;9.190;2023-02-26T11:11:51;4.20;99.90
10964;DHT22;5534;48.784;9.190;2023-02-26T11:14:18;4.10;99.90
10964;DHT22;5534;48.784;9.190;2023-02-26T11:16:57;4.00;99.90
10964;DHT22;5534;48.784;9.190;2023-02-26T11:19:36;4.00;99.90
10964;DHT22;5534;48.784;9.190;2023-02-26T11:22:04;4.10;99.90
10964;DHT22;5534;48.784;9.190;2023-02-26T11:24:40;4.10;99.90
10964;DHT22;5534;48.784;9.190;2023-02-26T11:27:17;4.10;99.90
10964;DHT22;5534;48.784;9.190;2023-02-26T11:29:48;4.20;99.90
10964;DHT22;5534;48.784;9.190;2023-02-26T11:32:21;4.30;99.90
10964;DHT22;5534;48.784;9.190;2023-02-26T11:34:49;4.40;99.90
10964;DHT22;5534;48.784;9.190;2023-02-26T11:37:20;4.50;99.90
10964;DHT22;5534;48.784;9.190;2023-02-26T11:39:46;4.40;99.90
10964;DHT22;5534;48.784;9.190;2023-02-26T11:42:15;4.30;99.90
10964;DHT22;5534;48.784;9.190;2023-02-26T11:44:45;4.30;99.90
10964;DHT22;5534;48.784;9.190;2023-02-26T11:47:15;4.40;99.90
10964;DHT22;5534;48.784;9.190;2023-02-26T11:49:50;4.30;99.90
10964;DHT22;5534;48.784;9.190;2023-02-26T11:52:21;4.40;99.90
10964;DHT22;5534;48.784;9.190;2023-02-26T11:54:50;4.50;99.90
10964;DHT22;5534;48.784;9.190;2023-02-26T11:57:23;4.60;99.90
10964;DHT22;5534;48.784;9.190;2023-02-26T11:59:51;4.70;99.90
10964;DHT22;5534;48.784;9.190;2023-02-26T12:02:20;4.60;99.90
10964;DHT22;5534;48.784;9.190;2023-02-26T12:04:51;4.50;99.90
10964;DHT22;5534;48.784;9.190;2023-02-26T12:07:19;4.40;99.90
10964;DHT22;5534;48.784;9.190;2023-02-26T12:09:48;4.00;99.90
10964;DHT22;5534;48.784;9.190;2023-02-26T12:26:19;4.60;99.90
10964;DHT22;5534;48.784;9.190;2023-02-26T12:31:40;4.40;99.90
10964;DHT22;5534;48.784;9.190;2023-02-26T12:37:25;4.10;99.90
10964;DHT22;5534;48.784;9.190;2023-02-26T12:42:58;4.30;99.90
10964;DHT22;5534;48.784;9.190;2023-02-26T12:45:52;4.40;99.90
10964;DHT22;5534;48.784;9.190;2023-02-26T12:48:36;4.60;99.90
10964;DHT22;5534;48.784;9.190;2023-02-26T13:05:38;5.00;99.90
10964;DHT22;5534;48.784;9.190;2023-02-26T13:11:05;5.10;99.90
10964;DHT22;5534;48.784;9.190;2023-02-26T13:13:44;4.80;99.90
10964;DHT22;5534;48.784;9.190;2023-02-26T13:16:27;4.70;99.90
10964;DHT22;5534;48.784;9.190;2023-02-26T13:25:00;4.60;99.90
10964;DHT22;5534;48.784;9.190;2023-02-26T13:27:34;4.80;99.90
10964;DHT22;5534;48.784;9.190;2023-02-26T13:32:40;4.80;99.90
10964;DHT22;5534;48.784;9.190;2023-02-26T13:35:22;5.00;99.90
10964;DHT22;5534;48.784;9.190;2023-02-26T13:37:55;5.00;99.90
10964;DHT22;5534;48.784;9.190;2023-02-26T13:51:38;5.00;99.90
10964;DHT22;5534;48.784;9.190;2023-02-26T14:02:02;5.10;99.90
10964;DHT22;5534;48.784;9.190;2023-02-26T14:04:32;5.10;99.90
10964;DHT22;5534;48.784;9.190;2023-02-26T14:07:14;5.10;99.90
10964;DHT22;5534;48.784;9.190;2023-02-26T14:10:00;5.20;99.90
10964;DHT22;5534;48.784;9.190;2023-02-26T14:12:34;5.10;99.90
10964;DHT22;5534;48.784;9.190;2023-02-26T14:17:49;5.30;99.90
10964;DHT22;5534;48.784;9.190;2023-02-26T14:22:56;5.20;99.90
10964;DHT22;5534;48.784;9.190;2023-02-26T14:25:28;5.10;99.90
10964;DHT22;5534;48.784;9.190;2023-02-26T14:31:17;5.50;99.90
10964;DHT22;5534;48.784;9.190;2023-02-26T14:36:55;5.10;99.90
10964;DHT22;5534;48.784;9.190;2023-02-26T14:39:42;5.00;99.90
10964;DHT22;5534;48.784;9.190;2023-02-26T14:42:36;5.00;99.90
10964;DHT22;5534;48.784;9.190;2023-02-26T14:47:51;4.90;99.90
10964;DHT22;5534;48.784;9.190;2023-02-26T14:50:20;4.80;99.90
10964;DHT22;5534;48.784;9.190;2023-02-26T14:56:16;4.80;99.90
10964;DHT22;5534;48.784;9.190;2023-02-26T15:12:46;5.40;99.90
10964;DHT22;5534;48.784;9.190;2023-02-26T15:15:46;5.30;99.90
10964;DHT22;5534;48.784;9.190;2023-02-26T15:26:05;5.20;99.90
10964;DHT22;5534;48.784;9.190;2023-02-26T15:28:38;5.20;99.90
10964;DHT22;5534;48.784;9.190;2023-02-26T15:31:06;5.10;99.90
10964;DHT22;5534;48.784;9.190;2023-02-26T15:33:33;5.10;99.90
10964;DHT22;5534;48.784;9.190;2023-02-26T15:36:00;5.00;99.90
10964;DHT22;5534;48.784;9.190;2023-02-26T15:38:26;5.00;99.90
10964;DHT22;5534;48.784;9.190;2023-02-26T15:40:54;4.90;99.90
10964;DHT22;5534;48.784;9.190;2023-02-26T15:43:26;5.00;99.90
10964;DHT22;5534;48.784;9.190;2023-02-26T15:45:55;5.00;99.90
10964;DHT22;5534;48.784;9.190;2023-02-26T15:48:36;5.00;99.90
10964;DHT22;5534;48.784;9.190;2023-02-26T15:51:05;5.10;99.90
10964;DHT22;5534;48.784;9.190;2023-02-26T15:53:41;5.00;99.90
10964;DHT22;5534;48.784;9.190;2023-02-26T15:56:13;5.00;99.90
10964;DHT22;5534;48.784;9.190;2023-02-26T15:58:53;5.10;99.90
10964;DHT22;5534;48.784;9.190;2023-02-26T16:01:27;5.20;99.90
10964;DHT22;5534;48.784;9.190;2023-02-26T16:03:57;5.10;99.90
10964;DHT22;5534;48.784;9.190;2023-02-26T16:06:32;5.10;99.90
10964;DHT22;5534;48.784;9.190;2023-02-26T16:08:59;5.10;99.90
10964;DHT22;5534;48.784;9.190;2023-02-26T16:11:31;5.00;99.90
10964;DHT22;5534;48.784;9.190;2023-02-26T16:13:58;5.00;99.90
10964;DHT22;5534;48.784;9.190;2023-02-26T16:16:27;4.80;99.90
10964;DHT22;5534;48.784;9.190;2023-02-26T16:18:54;4.80;99.90
10964;DHT22;5534;48.784;9.190;2023-02-26T16:21:32;4.70;99.90
10964;DHT22;5534;48.784;9.190;2023-02-26T16:23:59;4.70;99.90
10964;DHT22;5534;48.784;9.190;2023-02-26T16:26:30;4.80;99.90
10964;DHT22;5534;48.784;9.190;2023-02-26T16:29:03;4.80;99.90
10964;DHT22;5534;48.784;9.190;2023-02-26T16:31:31;4.70;99.90
10964;DHT22;5534;48.784;9.190;2023-02-26T16:34:21;4.70;99.90
10964;DHT22;5534;48.784;9.190;2023-02-26T16:36:47;4.70;99.90
10964;DHT22;5534;48.784;9.190;2023-02-26T16:39:23;4.60;99.90
10964;DHT22;5534;48.784;9.190;2023-02-26T16:42:07;4.50;99.90
10964;DHT22;5534;48.784;9.190;2023-02-26T16:47:00;4.70;99.90
10964;DHT22;5534;48.784;9.190;2023-02-26T16:49:34;4.70;99.90
10964;DHT22;5534;48.784;9.190;2023-02-26T16:52:00;4.60;99.90
10964;DHT22;5534;48.784;9.190;2023-02-26T16:54:30;4.60;99.90
10964;DHT22;5534;48.784;9.190;2023-02-26T16:57:29;4.50;99.90
10964;DHT22;5534;48.784;9.190;2023-02-26T16:59:58;4.40;99.90
10964;DHT22;5534;48.784;9.190;2023-02-26T17:02:28;4.40;99.90
10964;DHT22;5534;48.784;9.190;2023-02-26T17:05:01;4.50;99.90
10964;DHT22;5534;48.784;9.190;2023-02-26T17:07:34;4.60;99.90
10964;DHT22;5534;48.784;9.190;2023-02-26T17:10:23;4.60;99.90
10964;DHT22;5534;48.784;9.190;2023-02-26T17:13:02;4.60;99.90
10964;DHT22;5534;48.784;9.190;2023-02-26T17:15:33;4.60;99.90
10964;DHT22;5534;48.784;9.190;2023-02-26T17:18:00;4.60;99.90
10964;DHT22;5534;48.784;9.190;2023-02-26T17:20:27;4.60;99.90
10964;DHT22;5534;48.784;9.190;2023-02-26T17:22:54;4.60;99.90
10964;DHT22;5534;48.784;9.190;2023-02-26T17:25:21;4.50;99.90
10964;DHT22;5534;48.784;9.190;2023-02-26T17:27:50;4.60;99.90
10964;DHT22;5534;48.784;9.190;2023-02-26T17:30:22;4.50;99.90
10964;DHT22;5534;48.784;9.190;2023-02-26T17:32:49;4.60;99.90
10964;DHT22;5534;48.784;9.190;2023-02-26T17:35:17;4.60;99.90
10964;DHT22;5534;48.784;9.190;2023-02-26T17:37:44;4.60;99.90
10964;DHT22;5534;48.784;9.190;2023-02-26T17:40:21;4.60;99.90
10964;DHT22;5534;48.784;9.190;2023-02-26T17:42:48;4.60;99.90
10964;DHT22;5534;48.784;9.190;2023-02-26T17:45:16;4.50;99.90
10964;DHT22;5534;48.784;9.190;2023-02-26T17:47:43;4.50;99.90
10964;DHT22;5534;48.784;9.190;2023-02-26T17:53:02;4.60;99.90
10964;DHT22;5534;48.784;9.190;2023-02-26T17:55:28;4.50;99.90
10964;DHT22;5534;48.784;9.190;2023-02-26T17:57:55;4.40;99.90
10964;DHT22;5534;48.784;9.190;2023-02-26T18:00:22;4.30;99.90
10964;DHT22;5534;48.784;9.190;2023-02-26T18:02:48;4.20;99.90
10964;DHT22;5534;48.784;9.190;2023-02-26T18:05:17;4.10;99.90
10964;DHT22;5534;48.784;9.190;2023-02-26T18:07:44;4.10;99.90
10964;DHT22;5534;48.784;9.190;2023-02-26T18:10:20;4.10;99.90
10964;DHT22;5534;48.784;9.190;2023-02-26T18:12:46;4.10;99.90
10964;DHT22;5534;48.784;9.190;2023-02-26T18:15:12;4.20;99.90
10964;DHT22;5534;48.784;9.190;2023-02-26T18:17:40;4.10;99.90
10964;DHT22;5534;48.784;9.190;2023-02-26T18:20:07;4.10;99.90
10964;DHT22;5534;48.784;9.190;2023-02-26T18:22:37;4.20;99.90
10964;DHT22;5534;48.784;9.190;2023-02-26T18:25:03;4.20;99.90
10964;DHT22;5534;48.784;9.190;2023-02-26T18:27:29;4.10;99.90
10964;DHT22;5534;48.784;9.190;2023-02-26T18:29:58;4.10;99.90
10964;DHT22;5534;48.784;9.190;2023-02-26T18:32:25;4.20;99.90
10964;DHT22;5534;48.784;9.190;2023-02-26T18:34:52;4.20;99.90
10964;DHT22;5534;48.784;9.190;2023-02-26T18:37:20;4.20;99.90
10964;DHT22;5534;48.784;9.190;2023-02-26T18:39:47;4.20;99.90
10964;DHT22;5534;48.784;9.190;2023-02-26T18:42:21;4.20;99.90
10964;DHT22;5534;48.784;9.190;2023-02-26T18:44:48;4.20;99.90
10964;DHT22;5534;48.784;9.190;2023-02-26T18:47:15;4.10;99.90
10964;DHT22;5534;48.784;9.190;2023-02-26T18:49:41;4.10;99.90
10964;DHT22;5534;48.784;9.190;2023-02-26T18:52:07;4.10;99.90
10964;DHT22;5534;48.784;9.190;2023-02-26T18:54:32;4.10;99.90
10964;DHT22;5534;48.784;9.190;2023-02-26T18:56:58;4.10;99.90
10964;DHT22;5534;48.784;9.190;2023-02-26T18:59:24;4.00;99.90
10964;DHT22;5534;48.784;9.190;2023-02-26T19:01:50;3.90;99.90
10964;DHT22;5534;48.784;9.190;2023-02-26T19:04:15;3.90;99.90
10964;DHT22;5534;48.784;9.190;2023-02-26T19:06:41;3.90;99.90
10964;DHT22;5534;48.784;9.190;2023-02-26T19:09:07;3.90;99.90
10964;DHT22;5534;48.784;9.190;2023-02-26T19:11:33;3.90;99.90
10964;DHT22;5534;48.784;9.190;2023-02-26T19:13:59;3.90;99.90
10964;DHT22;5534;48.784;9.190;2023-02-26T19:16:25;3.80;99.90
10964;DHT22;5534;48.784;9.190;2023-02-26T19:18:52;3.80;99.90
10964;DHT22;5534;48.784;9.190;2023-02-26T19:21:18;3.80;99.90
10964;DHT22;5534;48.784;9.190;2023-02-26T19:23:44;3.80;99.90